createdAt,value
2023-04-09T00:02:07.401Z,3.55
2023-04-09T00:04:34.928Z,2.33
2023-04-09T00:07:02.236Z,4.22
2023-04-09T00:09:29.481Z,6.65
2023-04-09T00:11:57.192Z,3.63
2023-04-09T00:14:24.834Z,6.50
2023-04-09T00:16:52.100Z,6.70
2023-04-09T00:19:19.402Z,3.53
2023-04-09T00:21:46.653Z,6.15
2023-04-09T00:24:13.876Z,6.45
2023-04-09T00:26:41.336Z,11.38
2023-04-09T00:29:08.640Z,5.22
2023-04-09T00:31:36.003Z,7.00
2023-04-09T00:34:03.402Z,8.65
2023-04-09T00:36:31.001Z,8.52
2023-04-09T00:38:58.935Z,7.13
2023-04-09T00:41:26.208Z,7.00
2023-04-09T00:43:53.522Z,7.90
2023-04-09T00:46:21.078Z,10.27
2023-04-09T00:48:48.351Z,12.90
2023-04-09T00:51:15.608Z,5.13
2023-04-09T00:53:44.034Z,5.05
2023-04-09T00:56:12.921Z,10.02
2023-04-09T00:58:41.857Z,6.97
2023-04-09T01:01:09.120Z,7.63
2023-04-09T01:03:36.702Z,7.97
2023-04-09T01:06:10.248Z,7.43
2023-04-09T01:08:52.493Z,3.22
2023-04-09T01:11:32.307Z,8.18
2023-04-09T01:14:09.517Z,7.18
2023-04-09T01:16:37.880Z,4.65
2023-04-09T01:19:16.885Z,6.07
2023-04-09T01:21:44.974Z,5.18
2023-04-09T01:24:15.518Z,14.23
2023-04-09T01:26:45.934Z,7.72
2023-04-09T01:29:14.004Z,4.38
2023-04-09T01:31:43.261Z,4.38
2023-04-09T01:34:11.051Z,7.65
2023-04-09T01:36:40.799Z,6.75
2023-04-09T01:39:08.495Z,7.22
2023-04-09T01:41:36.290Z,7.22
2023-04-09T01:44:04.601Z,8.70
2023-04-09T01:46:32.633Z,6.53
2023-04-09T01:49:00.151Z,13.73
2023-04-09T01:51:28.008Z,6.32
2023-04-09T01:53:55.309Z,8.88
2023-04-09T01:56:22.613Z,6.57
2023-04-09T01:58:50.165Z,8.00
2023-04-09T02:01:21.539Z,7.38
2023-04-09T02:03:59.294Z,9.18
2023-04-09T02:06:32.621Z,8.07
2023-04-09T02:09:01.972Z,9.18
2023-04-09T02:11:30.288Z,7.30
2023-04-09T02:13:57.772Z,6.47
2023-04-09T02:16:26.390Z,8.75
2023-04-09T02:18:54.945Z,6.82
2023-04-09T02:21:24.157Z,9.48
2023-04-09T02:23:51.600Z,6.72
2023-04-09T02:26:18.835Z,7.32
2023-04-09T02:28:46.101Z,8.57
2023-04-09T02:31:13.386Z,6.22
2023-04-09T02:33:40.907Z,5.90
2023-04-09T02:36:08.204Z,8.50
2023-04-09T02:38:35.500Z,6.28
2023-04-09T02:41:02.733Z,7.07
2023-04-09T02:43:29.947Z,7.47
2023-04-09T02:45:57.312Z,12.32
2023-04-09T02:48:24.755Z,7.15
2023-04-09T02:50:52.053Z,9.40
2023-04-09T02:53:21.526Z,5.95
2023-04-09T02:55:48.858Z,4.65
2023-04-09T02:58:16.133Z,8.07
2023-04-09T03:00:43.431Z,6.13
2023-04-09T03:03:10.966Z,5.55
2023-04-09T03:05:39.054Z,5.15
2023-04-09T03:08:06.420Z,7.45
2023-04-09T03:10:33.674Z,5.10
2023-04-09T03:13:00.918Z,6.82
2023-04-09T03:15:28.168Z,7.15
2023-04-09T03:17:55.608Z,9.23
2023-04-09T03:20:22.858Z,6.15
2023-04-09T03:22:50.336Z,10.68
2023-04-09T03:25:19.548Z,8.00
2023-04-09T03:27:47.010Z,10.70
2023-04-09T03:30:14.266Z,5.18
2023-04-09T03:32:41.568Z,3.90
2023-04-09T03:35:09.053Z,5.30
2023-04-09T03:37:36.349Z,4.53
2023-04-09T03:40:03.939Z,9.13
2023-04-09T03:42:31.374Z,9.90
2023-04-09T03:44:58.629Z,6.45
2023-04-09T03:47:26.040Z,7.07
2023-04-09T03:49:53.344Z,4.68
2023-04-09T03:52:20.573Z,7.22
2023-04-09T03:54:47.923Z,8.55
2023-04-09T03:57:15.462Z,7.35
2023-04-09T03:59:42.773Z,7.00
2023-04-09T04:02:10.055Z,6.95
2023-04-09T04:04:37.455Z,15.18
2023-04-09T04:07:04.876Z,6.70
2023-04-09T04:09:32.136Z,8.60
2023-04-09T04:11:59.412Z,9.82
2023-04-09T04:14:26.766Z,8.07
2023-04-09T04:16:54.050Z,7.07
2023-04-09T04:19:21.294Z,13.05
2023-04-09T04:21:48.539Z,6.90
2023-04-09T04:24:15.834Z,9.93
2023-04-09T04:26:43.201Z,11.48
2023-04-09T04:29:10.471Z,7.25
2023-04-09T04:31:37.809Z,6.68
2023-04-09T04:34:05.083Z,6.95
2023-04-09T04:36:32.346Z,6.22
2023-04-09T04:38:59.642Z,6.47
2023-04-09T04:41:26.924Z,6.18
2023-04-09T04:43:54.243Z,11.77
2023-04-09T04:46:21.564Z,8.52
2023-04-09T04:48:48.824Z,11.05
2023-04-09T04:51:16.240Z,7.75
2023-04-09T04:53:43.523Z,8.80
2023-04-09T04:56:16.757Z,9.05
2023-04-09T04:58:44.081Z,8.77
2023-04-09T05:01:11.319Z,10.77
2023-04-09T05:03:38.831Z,8.52
2023-04-09T05:06:06.276Z,9.32
2023-04-09T05:08:33.515Z,15.55
2023-04-09T05:11:00.768Z,13.90
2023-04-09T05:13:28.160Z,12.45
2023-04-09T05:15:55.698Z,4.35
2023-04-09T05:18:23.038Z,9.30
2023-04-09T05:20:50.509Z,8.73
2023-04-09T05:23:17.810Z,10.23
2023-04-09T05:25:45.208Z,11.48
2023-04-09T05:28:12.547Z,10.90
2023-04-09T05:30:39.888Z,8.70
2023-04-09T05:33:07.166Z,12.52
2023-04-09T05:35:34.511Z,10.45
2023-04-09T05:38:01.942Z,11.93
2023-04-09T05:40:29.248Z,11.32
2023-04-09T05:42:56.638Z,7.18
2023-04-09T05:45:24.009Z,15.07
2023-04-09T05:47:51.691Z,11.07
2023-04-09T05:50:19.013Z,11.10
2023-04-09T05:52:46.266Z,14.80
2023-04-09T05:55:13.795Z,7.22
2023-04-09T05:57:42.245Z,9.07
2023-04-09T06:00:09.708Z,11.52
2023-04-09T06:02:37.060Z,12.40
2023-04-09T06:05:04.615Z,12.25
2023-04-09T06:07:31.905Z,10.05
2023-04-09T06:09:59.141Z,15.70
2023-04-09T06:12:26.422Z,15.82
2023-04-09T06:14:53.812Z,14.63
2023-04-09T06:17:21.154Z,14.15
2023-04-09T06:19:48.398Z,11.63
2023-04-09T06:22:15.672Z,10.93
2023-04-09T06:24:43.059Z,16.92
2023-04-09T06:27:10.609Z,18.73
2023-04-09T06:29:37.818Z,16.80
2023-04-09T06:32:05.810Z,13.95
2023-04-09T06:34:33.103Z,13.65
2023-04-09T06:37:00.415Z,13.07
2023-04-09T06:39:27.994Z,17.70
2023-04-09T06:41:55.262Z,16.02
2023-04-09T06:44:24.331Z,12.48
2023-04-09T06:46:51.899Z,11.90
2023-04-09T06:49:19.386Z,19.58
2023-04-09T06:51:46.729Z,13.80
2023-04-09T06:54:14.030Z,14.18
2023-04-09T06:56:41.365Z,15.15
2023-04-09T06:59:08.617Z,18.10
2023-04-09T07:01:37.835Z,13.88
2023-04-09T07:04:05.917Z,16.77
2023-04-09T07:06:33.212Z,17.63
2023-04-09T07:09:00.630Z,18.45
2023-04-09T07:11:27.876Z,14.20
2023-04-09T07:13:56.894Z,14.05
2023-04-09T07:16:24.421Z,14.80
2023-04-09T07:18:51.718Z,20.50
2023-04-09T07:21:19.230Z,22.58
2023-04-09T07:23:46.874Z,12.63
2023-04-09T07:26:14.194Z,15.15
2023-04-09T07:28:42.304Z,17.20
2023-04-09T07:31:09.611Z,22.15
2023-04-09T07:33:36.880Z,14.45
2023-04-09T07:36:04.254Z,14.98
2023-04-09T07:38:31.678Z,11.48
2023-04-09T07:40:58.998Z,16.40
2023-04-09T07:43:26.304Z,18.35
2023-04-09T07:45:53.608Z,15.82
2023-04-09T07:48:21.196Z,16.70
2023-04-09T07:50:48.462Z,19.25
2023-04-09T07:53:16.549Z,24.88
2023-04-09T07:55:43.846Z,21.02
2023-04-09T07:58:11.869Z,18.90
2023-04-09T08:00:39.220Z,14.32
2023-04-09T08:03:07.109Z,18.23
2023-04-09T08:05:36.486Z,15.95
2023-04-09T08:08:03.889Z,20.38
2023-04-09T08:10:31.366Z,14.32
2023-04-09T08:12:58.592Z,17.88
2023-04-09T08:15:26.193Z,19.25
2023-04-09T08:17:53.513Z,25.98
2023-04-09T08:20:20.862Z,13.30
2023-04-09T08:22:48.711Z,25.70
2023-04-09T08:25:16.028Z,30.48
2023-04-09T08:27:43.287Z,19.17
2023-04-09T08:30:11.149Z,30.70
2023-04-09T08:32:38.534Z,13.77
2023-04-09T08:35:06.318Z,28.75
2023-04-09T08:37:33.621Z,18.75
2023-04-09T08:40:00.897Z,18.98
2023-04-09T08:42:28.362Z,21.60
2023-04-09T08:44:55.630Z,17.67
2023-04-09T08:47:23.445Z,20.48
2023-04-09T08:49:51.025Z,15.75
2023-04-09T08:52:21.990Z,16.33
2023-04-09T08:54:50.095Z,19.27
2023-04-09T08:57:17.731Z,16.25
2023-04-09T08:59:45.265Z,14.27
2023-04-09T09:02:12.886Z,15.70
2023-04-09T09:04:49.892Z,14.85
2023-04-09T09:07:17.758Z,13.25
2023-04-09T09:09:52.758Z,17.67
2023-04-09T09:12:39.218Z,14.98
2023-04-09T09:15:07.490Z,12.90
2023-04-09T09:17:35.347Z,11.75
2023-04-09T09:20:19.692Z,15.82
2023-04-09T09:23:05.293Z,19.45
2023-04-09T09:25:38.434Z,14.80
2023-04-09T09:28:10.070Z,15.02
2023-04-09T09:30:39.203Z,21.63
2023-04-09T09:33:10.742Z,22.30
2023-04-09T09:35:54.548Z,17.55
2023-04-09T09:38:21.991Z,19.35
2023-04-09T09:40:50.333Z,16.15
2023-04-09T09:43:17.596Z,20.85
2023-04-09T09:45:45.125Z,18.15
2023-04-09T09:48:15.485Z,25.23
2023-04-09T09:50:43.528Z,20.67
2023-04-09T09:53:11.828Z,18.73
2023-04-09T09:55:40.540Z,16.63
2023-04-09T09:58:18.059Z,18.60
2023-04-09T10:00:48.425Z,15.50
2023-04-09T10:03:17.109Z,14.77
2023-04-09T10:05:45.971Z,12.93
2023-04-09T10:08:13.377Z,17.77
2023-04-09T10:10:45.051Z,17.05
2023-04-09T10:13:15.641Z,21.70
2023-04-09T10:15:44.715Z,10.18
2023-04-09T10:18:12.259Z,18.20
2023-04-09T10:20:48.952Z,22.55
2023-04-09T10:23:20.318Z,14.07
2023-04-09T10:25:47.746Z,18.42
2023-04-09T10:28:18.916Z,18.65
2023-04-09T10:30:46.516Z,19.15
2023-04-09T10:33:15.127Z,15.15
2023-04-09T10:35:42.608Z,18.00
2023-04-09T10:38:10.868Z,14.07
2023-04-09T10:40:56.414Z,16.45
2023-04-09T10:43:24.225Z,16.42
2023-04-09T10:45:54.630Z,14.65
2023-04-09T10:48:22.266Z,17.02
2023-04-09T10:50:54.067Z,20.98
2023-04-09T10:53:25.220Z,17.48
2023-04-09T10:55:56.329Z,22.85
2023-04-09T10:58:23.558Z,14.82
2023-04-09T11:00:51.541Z,11.60
2023-04-09T11:03:30.612Z,16.27
2023-04-09T11:06:02.663Z,19.77
2023-04-09T11:08:31.528Z,19.60
2023-04-09T11:11:01.069Z,14.80
2023-04-09T11:13:28.971Z,19.77
2023-04-09T11:15:56.925Z,19.05
2023-04-09T11:18:28.325Z,12.55
2023-04-09T11:20:56.549Z,13.48
2023-04-09T11:23:24.929Z,16.63
2023-04-09T11:25:52.850Z,24.55
2023-04-09T11:28:20.693Z,19.35
2023-04-09T11:30:48.450Z,15.10
2023-04-09T11:33:17.455Z,18.13
2023-04-09T11:35:46.574Z,15.70
2023-04-09T11:38:13.958Z,13.30
2023-04-09T11:40:47.868Z,28.42
2023-04-09T11:43:20.979Z,15.65
2023-04-09T11:45:48.943Z,18.52
2023-04-09T11:48:18.395Z,17.80
2023-04-09T11:50:46.682Z,25.95
2023-04-09T11:53:20.732Z,15.02
2023-04-09T11:55:49.199Z,24.27
2023-04-09T11:58:16.690Z,17.15
2023-04-09T12:00:44.117Z,21.38
2023-04-09T12:03:11.964Z,16.27
2023-04-09T12:05:42.134Z,18.00
2023-04-09T12:08:11.069Z,13.65
2023-04-09T12:10:39.111Z,21.33
2023-04-09T12:13:07.127Z,23.50
2023-04-09T12:15:35.562Z,22.52
2023-04-09T12:18:03.812Z,13.50
2023-04-09T12:20:31.266Z,15.52
2023-04-09T12:23:00.360Z,23.83
2023-04-09T12:25:28.391Z,14.38
2023-04-09T12:27:56.626Z,26.58
2023-04-09T12:30:24.369Z,14.23
2023-04-09T12:32:52.932Z,14.23
2023-04-09T12:35:20.474Z,22.42
2023-04-09T12:37:47.790Z,21.42
2023-04-09T12:40:15.629Z,15.60
2023-04-09T12:42:43.477Z,22.77
2023-04-09T12:45:11.935Z,22.10
2023-04-09T12:47:42.323Z,17.10
2023-04-09T12:50:10.303Z,16.52
2023-04-09T12:52:37.662Z,18.75
2023-04-09T12:55:05.933Z,18.60
2023-04-09T12:57:33.627Z,17.02
2023-04-09T13:00:01.036Z,18.75
2023-04-09T13:02:28.501Z,25.58
2023-04-09T13:04:55.855Z,26.08
2023-04-09T13:07:23.561Z,18.13
2023-04-09T13:09:50.866Z,17.67
2023-04-09T13:12:18.348Z,14.27
2023-04-09T13:14:47.359Z,16.88
2023-04-09T13:17:15.486Z,13.88
2023-04-09T13:19:43.063Z,24.77
2023-04-09T13:22:10.786Z,18.73
2023-04-09T13:24:38.490Z,19.23
2023-04-09T13:27:06.793Z,18.27
2023-04-09T13:29:34.089Z,17.02
2023-04-09T13:32:06.985Z,25.70
2023-04-09T13:34:35.092Z,27.83
2023-04-09T13:37:05.651Z,18.35
2023-04-09T13:39:33.292Z,22.98
2023-04-09T13:42:01.579Z,18.98
2023-04-09T13:44:32.785Z,21.60
2023-04-09T13:47:00.094Z,17.58
2023-04-09T13:49:27.584Z,16.85
2023-04-09T13:51:55.747Z,21.65
2023-04-09T13:54:23.135Z,22.83
2023-04-09T13:56:51.159Z,25.27
2023-04-09T13:59:18.610Z,17.23
2023-04-09T14:01:46.182Z,20.98
2023-04-09T14:04:13.602Z,15.32
2023-04-09T14:06:42.286Z,21.38
2023-04-09T14:09:09.928Z,24.40
2023-04-09T14:11:37.175Z,13.07
2023-04-09T14:14:04.699Z,14.35
2023-04-09T14:16:32.074Z,20.02
2023-04-09T14:18:59.434Z,18.90
2023-04-09T14:21:27.056Z,19.90
2023-04-09T14:23:54.446Z,23.10
2023-04-09T14:26:24.258Z,20.25
2023-04-09T14:28:52.190Z,21.75
2023-04-09T14:31:22.834Z,14.63
2023-04-09T14:33:50.390Z,16.17
2023-04-09T14:36:18.308Z,15.65
2023-04-09T14:38:46.107Z,23.58
2023-04-09T14:41:13.382Z,16.50
2023-04-09T14:43:40.833Z,23.13
2023-04-09T14:46:11.635Z,17.55
2023-04-09T14:48:42.005Z,21.75
2023-04-09T14:51:13.496Z,16.63
2023-04-09T14:53:40.795Z,25.67
2023-04-09T14:56:08.231Z,19.00
2023-04-09T14:58:36.347Z,16.20
2023-04-09T15:01:04.639Z,16.50
2023-04-09T15:03:32.135Z,22.85
2023-04-09T15:06:00.051Z,17.50
2023-04-09T15:08:27.432Z,19.35
2023-04-09T15:10:54.803Z,24.27
2023-04-09T15:13:22.191Z,22.05
2023-04-09T15:15:49.932Z,20.27
2023-04-09T15:18:17.316Z,19.60
2023-04-09T15:20:44.652Z,16.25
2023-04-09T15:23:12.126Z,15.40
2023-04-09T15:25:39.616Z,16.60
2023-04-09T15:28:07.255Z,21.88
2023-04-09T15:30:35.758Z,17.67
2023-04-09T15:33:03.129Z,22.27
2023-04-09T15:35:30.650Z,25.52
2023-04-09T15:37:58.143Z,22.98
2023-04-09T15:40:25.479Z,13.85
2023-04-09T15:42:52.986Z,15.43
2023-04-09T15:45:20.429Z,22.48
2023-04-09T15:47:47.877Z,19.00
2023-04-09T15:50:15.500Z,20.63
2023-04-09T15:52:42.804Z,15.52
2023-04-09T15:55:10.311Z,10.90
2023-04-09T15:57:38.611Z,12.70
2023-04-09T16:00:09.710Z,19.17
2023-04-09T16:02:38.813Z,16.80
2023-04-09T16:05:07.182Z,10.38
2023-04-09T16:07:34.561Z,13.02
2023-04-09T16:10:02.620Z,19.00
2023-04-09T16:12:29.914Z,20.20
2023-04-09T16:14:57.248Z,10.65
2023-04-09T16:17:24.607Z,18.13
2023-04-09T16:19:51.909Z,13.02
2023-04-09T16:22:19.164Z,19.90
2023-04-09T16:24:46.596Z,15.73
2023-04-09T16:27:14.946Z,21.85
2023-04-09T16:29:42.423Z,21.90
2023-04-09T16:32:09.812Z,17.45
2023-04-09T16:34:37.111Z,15.85
2023-04-09T16:37:04.461Z,17.05
2023-04-09T16:39:31.746Z,15.32
2023-04-09T16:41:59.237Z,14.90
2023-04-09T16:44:26.643Z,19.58
2023-04-09T16:46:53.907Z,16.20
2023-04-09T16:49:21.211Z,12.80
2023-04-09T16:51:48.642Z,18.60
2023-04-09T16:54:15.922Z,17.73
2023-04-09T16:56:43.245Z,14.05
2023-04-09T16:59:12.130Z,22.73
2023-04-09T17:01:39.486Z,12.95
2023-04-09T17:04:06.832Z,14.75
2023-04-09T17:06:34.150Z,24.50
2023-04-09T17:09:03.647Z,18.50
2023-04-09T17:11:32.624Z,20.20
2023-04-09T17:14:00.005Z,12.48
2023-04-09T17:16:27.828Z,17.00
2023-04-09T17:18:55.263Z,17.83
2023-04-09T17:21:22.781Z,15.20
2023-04-09T17:23:50.273Z,14.35
2023-04-09T17:26:17.576Z,14.65
2023-04-09T17:28:46.661Z,17.13
2023-04-09T17:31:14.717Z,12.52
2023-04-09T17:33:43.082Z,11.85
2023-04-09T17:36:10.406Z,20.25
2023-04-09T17:38:37.730Z,14.68
2023-04-09T17:41:07.382Z,11.60
2023-04-09T17:43:34.900Z,16.15
2023-04-09T17:46:02.850Z,20.73
2023-04-09T17:48:31.939Z,11.20
2023-04-09T17:50:59.452Z,21.60
2023-04-09T17:53:27.150Z,12.52
2023-04-09T17:55:55.856Z,11.68
2023-04-09T17:58:24.395Z,11.93
2023-04-09T18:00:53.188Z,16.33
2023-04-09T18:03:21.043Z,22.45
2023-04-09T18:05:48.735Z,12.80
2023-04-09T18:08:16.450Z,10.80
2023-04-09T18:10:43.736Z,8.77
2023-04-09T18:13:11.033Z,16.60
2023-04-09T18:15:38.421Z,14.82
2023-04-09T18:18:05.841Z,9.45
2023-04-09T18:20:33.163Z,10.00
2023-04-09T18:23:00.699Z,10.15
2023-04-09T18:25:28.767Z,9.63
2023-04-09T18:27:56.242Z,12.93
2023-04-09T18:30:23.522Z,21.20
2023-04-09T18:32:51.859Z,15.20
2023-04-09T18:35:19.385Z,12.85
2023-04-09T18:37:46.656Z,12.57
2023-04-09T18:40:17.502Z,9.23
2023-04-09T18:42:45.154Z,15.25
2023-04-09T18:45:12.592Z,11.18
2023-04-09T18:47:40.520Z,15.05
2023-04-09T18:50:08.175Z,7.57
2023-04-09T18:52:38.366Z,11.45
2023-04-09T18:55:05.886Z,11.32
2023-04-09T18:57:33.549Z,9.45
2023-04-09T19:00:03.055Z,11.23
2023-04-09T19:02:30.829Z,15.43
2023-04-09T19:04:59.110Z,9.98
2023-04-09T19:07:26.445Z,13.15
2023-04-09T19:09:53.736Z,17.92
2023-04-09T19:12:21.265Z,17.70
2023-04-09T19:14:48.528Z,15.40
2023-04-09T19:17:15.777Z,9.10
2023-04-09T19:19:43.318Z,13.10
2023-04-09T19:22:10.547Z,13.57
2023-04-09T19:24:37.925Z,13.85
2023-04-09T19:27:09.666Z,9.35
2023-04-09T19:29:37.112Z,9.40
2023-04-09T19:32:05.822Z,11.77
2023-04-09T19:34:33.152Z,14.57
2023-04-09T19:37:00.858Z,15.23
2023-04-09T19:39:28.130Z,13.18
2023-04-09T19:41:55.611Z,8.82
2023-04-09T19:44:23.719Z,11.70
2023-04-09T19:46:51.171Z,15.30
2023-04-09T19:49:18.493Z,13.25
2023-04-09T19:51:45.893Z,11.85
2023-04-09T19:54:15.141Z,8.50
2023-04-09T19:56:42.593Z,9.93
2023-04-09T19:59:09.879Z,9.27
2023-04-09T20:01:37.384Z,11.55
2023-04-09T20:04:05.428Z,12.40
2023-04-09T20:06:33.293Z,10.45
2023-04-09T20:09:01.246Z,6.43
2023-04-09T20:11:28.651Z,12.65
2023-04-09T20:13:57.240Z,10.57
2023-04-09T20:16:24.606Z,8.48
2023-04-09T20:18:52.110Z,6.28
2023-04-09T20:21:19.495Z,5.85
2023-04-09T20:23:46.845Z,8.25
2023-04-09T20:26:14.189Z,7.72
2023-04-09T20:28:41.864Z,13.80
2023-04-09T20:31:09.182Z,14.73
2023-04-09T20:33:36.413Z,5.28
2023-04-09T20:36:03.734Z,10.27
2023-04-09T20:38:31.783Z,8.15
2023-04-09T20:40:59.079Z,5.90
2023-04-09T20:43:26.389Z,7.90
2023-04-09T20:45:53.770Z,10.65
2023-04-09T20:48:21.202Z,9.05
2023-04-09T20:50:48.486Z,6.00
2023-04-09T20:53:15.737Z,12.60
2023-04-09T20:55:43.143Z,7.30
2023-04-09T20:58:10.466Z,6.07
2023-04-09T21:00:37.690Z,7.97
2023-04-09T21:03:05.147Z,9.25
2023-04-09T21:05:32.921Z,12.77
2023-04-09T21:08:00.234Z,19.63
2023-04-09T21:10:27.455Z,11.98
2023-04-09T21:12:54.740Z,7.78
2023-04-09T21:15:22.011Z,7.43
2023-04-09T21:17:49.392Z,6.90
2023-04-09T21:20:16.797Z,8.43
2023-04-09T21:22:44.162Z,10.23
2023-04-09T21:25:13.790Z,9.25
2023-04-09T21:27:42.506Z,6.30
2023-04-09T21:30:09.981Z,7.85
2023-04-09T21:32:37.325Z,3.28
2023-04-09T21:35:05.183Z,6.93
2023-04-09T21:37:33.769Z,11.20
2023-04-09T21:40:01.008Z,9.40
2023-04-09T21:42:31.487Z,6.72
2023-04-09T21:44:58.907Z,6.88
2023-04-09T21:47:27.521Z,9.43
2023-04-09T21:49:54.884Z,13.93
2023-04-09T21:52:22.472Z,8.43
2023-04-09T21:54:49.847Z,7.00
2023-04-09T21:57:17.199Z,6.72
2023-04-09T21:59:44.552Z,17.42
2023-04-09T22:02:11.938Z,9.20
2023-04-09T22:04:42.624Z,5.53
2023-04-09T22:07:10.606Z,8.48
2023-04-09T22:09:38.258Z,8.00
2023-04-09T22:12:05.626Z,6.65
2023-04-09T22:14:33.250Z,7.18
2023-04-09T22:17:01.806Z,10.25
2023-04-09T22:19:29.742Z,8.15
2023-04-09T22:21:56.992Z,9.13
2023-04-09T22:24:27.243Z,7.60
2023-04-09T22:26:54.595Z,5.53
2023-04-09T22:29:21.912Z,8.80
2023-04-09T22:31:49.307Z,5.45
2023-04-09T22:34:21.426Z,7.97
2023-04-09T22:39:16.678Z,5.43
2023-04-09T22:41:44.090Z,7.70
2023-04-09T22:44:11.499Z,6.03
2023-04-09T22:46:38.852Z,7.95
2023-04-09T22:49:06.574Z,4.53
2023-04-09T22:51:38.538Z,6.30
2023-04-09T22:54:07.573Z,4.28
2023-04-09T22:56:34.877Z,4.50
2023-04-09T22:59:02.110Z,9.02
2023-04-09T23:01:29.498Z,5.15
2023-04-09T23:03:56.765Z,5.90
2023-04-09T23:06:25.090Z,7.22
2023-04-09T23:08:52.759Z,7.55
2023-04-09T23:11:21.026Z,9.73
2023-04-09T23:13:48.324Z,5.60
2023-04-09T23:16:15.884Z,4.15
2023-04-09T23:18:43.216Z,2.55
2023-04-09T23:21:11.061Z,3.53
2023-04-09T23:23:39.014Z,3.90
2023-04-09T23:26:06.813Z,1.60
2023-04-09T23:28:35.299Z,4.68
2023-04-09T23:31:02.672Z,2.45
2023-04-09T23:33:30.001Z,3.38
2023-04-09T23:35:57.382Z,7.30
2023-04-09T23:38:24.653Z,3.17
2023-04-09T23:40:51.883Z,1.70
2023-04-09T23:43:19.191Z,2.80
2023-04-09T23:45:46.608Z,0.98
2023-04-09T23:48:13.865Z,2.83
2023-04-09T23:50:43.954Z,0.85
2023-04-09T23:53:11.604Z,3.33
2023-04-09T23:55:41.102Z,0.63
2023-04-09T23:58:09.580Z,5.18
